Time;durP1;ratioP1;P1;durP2;ratioP2;P2;SDS_P1;SDS_P2;PMS_P1;PMS_P2;Temp;Humidity;BMP_temperature;BMP_pressure;BME280_temperature;BME280_humidity;BME280_pressure;Samples;Min_cycle;Max_cycle;Signal;HPM_P1;HPM_P2
2023/01/09 00:01:28;;;;;;;11.50;7.53;;;;;;;8.10;76.17;99998.86;1546754;84;21277;-79
2023/01/09 00:03:55;;;;;;;15.03;7.93;;;;;;;8.12;76.75;99997.42;1541170;84;21359;-78
2023/01/09 00:06:22;;;;;;;12.97;6.67;;;;;;;8.09;77.06;99991.94;1536201;84;22357;-79
2023/01/09 00:08:48;;;;;;;10.90;6.83;;;;;;;8.08;76.45;99997.34;1475551;88;21353;-80
2023/01/09 00:11:14;;;;;;;13.07;8.27;;;;;;;8.10;76.50;99992.27;1540028;84;21374;-79
2023/01/09 00:13:41;;;;;;;15.30;8.87;;;;;;;8.11;75.80;99993.95;1539011;84;21499;-79
2023/01/09 00:16:08;;;;;;;9.23;7.10;;;;;;;8.14;75.12;100000.26;1531131;84;21329;-80
2023/01/09 00:18:35;;;;;;;10.47;7.53;;;;;;;8.16;74.99;100005.86;1541770;84;21344;-77
2023/01/09 00:21:04;;;;;;;12.83;8.53;;;;;;;8.16;75.65;99996.64;1535788;84;21292;-77
2023/01/09 00:23:31;;;;;;;10.43;6.70;;;;;;;8.12;75.92;99991.66;1532571;84;22203;-79
2023/01/09 00:26:10;;;;;;;9.17;6.13;;;;;;;8.11;75.95;99990.00;1541171;84;21514;-78
2023/01/09 00:28:37;;;;;;;10.27;7.03;;;;;;;8.09;76.22;99978.77;1528333;84;22526;-78
2023/01/09 00:31:06;;;;;;;11.80;7.37;;;;;;;8.08;75.78;99979.71;1537515;84;21366;-80
2023/01/09 00:33:44;;;;;;;17.97;8.03;;;;;;;8.09;76.32;99982.72;1540392;84;21343;-79
2023/01/09 00:36:11;;;;;;;14.23;7.93;;;;;;;8.06;75.43;99989.59;1541614;84;22268;-80
2023/01/09 00:38:37;;;;;;;12.40;7.17;;;;;;;8.06;75.51;99984.81;1537207;84;21418;-79
2023/01/09 00:41:11;;;;;;;17.23;8.33;;;;;;;8.04;75.76;99987.58;1515968;84;21566;-80
2023/01/09 00:43:43;;;;;;;14.43;7.67;;;;;;;8.02;75.28;99984.23;1471855;88;22292;-80
2023/01/09 00:46:10;;;;;;;12.63;7.27;;;;;;;8.04;75.13;99977.52;1535560;84;21440;-79
2023/01/09 00:48:40;;;;;;;16.43;7.43;;;;;;;8.06;75.11;99983.00;1547384;84;21388;-79
2023/01/09 00:51:07;;;;;;;12.87;8.17;;;;;;;8.08;75.13;99973.62;1544075;84;21566;-80
2023/01/09 00:53:37;;;;;;;12.27;7.70;;;;;;;8.06;75.26;99975.09;1481350;88;21389;-78
2023/01/09 00:56:08;;;;;;;12.68;7.25;;;;;;;8.03;75.17;99972.75;1475992;88;21397;-80
2023/01/09 00:58:34;;;;;;;9.33;6.37;;;;;;;8.00;74.67;99973.03;1547939;84;21418;-80
2023/01/09 01:01:01;;;;;;;16.97;6.90;;;;;;;8.02;75.32;99983.41;1534223;84;21432;-80
2023/01/09 01:03:27;;;;;;;10.23;6.10;;;;;;;8.00;74.70;99975.67;1539563;84;21359;-80
2023/01/09 01:08:39;;;;;;;9.53;6.07;;;;;;;8.01;74.85;99978.64;1475335;88;21419;-80
2023/01/09 01:11:09;;;;;;;11.37;6.77;;;;;;;8.02;74.07;99968.43;1541542;84;22239;-80
2023/01/09 01:13:36;;;;;;;16.10;6.78;;;;;;;8.01;74.23;99958.88;1474931;88;21530;-80
2023/01/09 01:16:05;;;;;;;12.10;6.63;;;;;;;8.01;74.74;99962.00;1534474;84;22320;-81
2023/01/09 01:18:31;;;;;;;7.60;5.60;;;;;;;7.99;75.09;99954.71;1543959;84;21389;-80
2023/01/09 01:20:57;;;;;;;10.80;6.07;;;;;;;7.97;74.31;99960.14;1478319;88;21294;-80
2023/01/09 01:23:24;;;;;;;9.37;6.03;;;;;;;7.99;74.31;99959.48;1539178;84;21308;-80
2023/01/09 01:25:50;;;;;;;11.17;5.83;;;;;;;7.99;74.08;99939.72;1536267;84;21300;-81
2023/01/09 01:28:16;;;;;;;10.57;7.30;;;;;;;7.97;74.90;99943.02;1538439;84;23062;-81
2023/01/09 01:30:43;;;;;;;8.73;5.50;;;;;;;7.91;74.61;99942.23;1465692;88;21501;-80
2023/01/09 01:33:10;;;;;;;8.30;5.90;;;;;;;7.89;75.35;99933.66;1536101;84;21359;-78
2023/01/09 01:35:37;;;;;;;8.57;6.20;;;;;;;7.87;75.48;99936.43;1463134;88;21530;-81
2023/01/09 01:38:03;;;;;;;11.87;5.57;;;;;;;7.86;75.75;99936.59;1536283;84;22437;-80
2023/01/09 01:40:30;;;;;;;11.20;5.47;;;;;;;7.85;75.44;99930.95;1470694;88;21508;-80
2023/01/09 01:42:57;;;;;;;7.73;5.67;;;;;;;7.85;75.53;99934.91;1541595;84;21366;-80
2023/01/09 01:45:27;;;;;;;10.83;5.57;;;;;;;7.84;75.29;99933.25;1545380;84;21573;-79
2023/01/09 01:48:10;;;;;;;10.13;5.03;;;;;;;7.84;75.19;99931.94;1469090;88;21344;-80
2023/01/09 01:50:42;;;;;;;7.57;5.27;;;;;;;7.81;74.70;99925.64;1532111;84;21624;-80
2023/01/09 01:53:22;;;;;;;7.90;4.73;;;;;;;7.81;74.77;99930.91;1475721;87;21589;-80
2023/01/09 01:56:15;;;;;;;8.78;5.22;;;;;;;7.81;74.75;99923.00;1537792;84;21425;-79
2023/01/09 01:58:58;;;;;;;10.10;5.40;;;;;;;7.83;75.96;99913.16;1473724;88;21613;-79
2023/01/09 02:01:25;;;;;;;10.03;4.67;;;;;;;7.77;75.98;99913.70;1540327;84;22557;-81
2023/01/09 02:03:55;;;;;;;8.77;5.60;;;;;;;7.71;75.81;99915.59;1472624;87;21338;-80
2023/01/09 02:06:22;;;;;;;13.10;6.20;;;;;;;7.67;75.69;99917.19;1540528;84;21515;-81
2023/01/09 02:08:49;;;;;;;11.67;5.13;;;;;;;7.67;76.04;99917.19;1547790;84;21366;-81
2023/01/09 02:11:19;;;;;;;9.57;5.50;;;;;;;7.67;76.54;99909.78;1535998;84;21439;-81
2023/01/09 02:13:46;;;;;;;11.83;6.33;;;;;;;7.67;76.39;99904.47;1537351;84;21366;-80
2023/01/09 02:16:41;;;;;;;7.50;5.13;;;;;;;7.63;76.00;99904.47;1548286;84;22173;-82
2023/01/09 02:19:31;;;;;;;10.97;5.30;;;;;;;7.65;75.52;99904.67;1537855;84;21433;-81
2023/01/09 02:22:43;;;;;;;7.50;4.47;;;;;;;7.64;75.58;99904.30;1535754;84;21440;-81
2023/01/09 02:26:03;;;;;;;8.87;5.13;;;;;;;7.62;75.48;99901.01;1490118;84;21373;-80
2023/01/09 02:29:05;;;;;;;6.27;4.27;;;;;;;7.63;76.43;99881.59;1544061;84;21411;-81
2023/01/09 02:31:52;;;;;;;7.47;5.00;;;;;;;7.62;76.26;99881.25;1540821;84;21532;-80
2023/01/09 02:34:40;;;;;;;9.97;5.20;;;;;;;7.62;76.65;99876.45;1472320;88;21605;-80
2023/01/09 02:37:30;;;;;;;10.17;5.07;;;;;;;7.58;75.99;99870.64;1540293;84;21574;-80
2023/01/09 02:40:05;;;;;;;6.70;4.65;;;;;;;7.56;76.12;99876.52;1541316;84;21498;-81
2023/01/09 02:42:33;;;;;;;7.53;4.63;;;;;;;7.55;75.25;99878.00;1541353;84;22674;-80
2023/01/09 02:44:59;;;;;;;6.00;4.20;;;;;;;7.54;75.16;99871.91;1541173;84;21417;-82
2023/01/09 02:47:38;;;;;;;8.97;5.07;;;;;;;7.55;75.59;99866.97;1477437;87;21448;-81
2023/01/09 02:50:10;;;;;;;6.40;4.53;;;;;;;7.59;73.99;99872.30;1540512;84;21815;-79
2023/01/09 02:52:44;;;;;;;9.63;5.90;;;;;;;7.63;74.59;99875.00;1476859;87;21354;-81
2023/01/09 02:55:38;;;;;;;6.70;4.43;;;;;;;7.67;74.59;99869.78;1539078;84;21351;-81
2023/01/09 02:58:33;;;;;;;7.23;4.43;;;;;;;7.67;73.40;99864.52;1471816;88;21479;-80
2023/01/09 03:01:32;;;;;;;7.50;4.60;;;;;;;7.71;73.19;99872.13;1539500;84;21418;-81
2023/01/09 03:04:25;;;;;;;11.37;6.23;;;;;;;7.74;72.47;99869.20;1540307;84;21410;-81
2023/01/09 03:06:57;;;;;;;8.03;4.63;;;;;;;7.74;72.84;99866.11;1525184;84;21366;-80
2023/01/09 03:09:27;;;;;;;7.43;4.57;;;;;;;7.78;71.46;99861.38;1473554;87;21375;-78
2023/01/09 03:12:04;;;;;;;5.95;4.40;;;;;;;7.81;72.30;99855.33;1529840;84;22356;-79
2023/01/09 03:14:32;;;;;;;7.63;4.90;;;;;;;7.85;72.78;99851.91;1535217;84;21374;-80
2023/01/09 03:17:04;;;;;;;8.37;4.83;;;;;;;7.86;72.07;99864.95;1547495;84;21381;-80
2023/01/09 03:19:33;;;;;;;8.93;5.03;;;;;;;7.87;72.22;99853.92;1538160;84;21366;-80
2023/01/09 03:21:59;;;;;;;8.57;5.93;;;;;;;7.87;71.77;99859.20;1521006;84;21489;-80
2023/01/09 03:24:26;;;;;;;9.17;5.10;;;;;;;7.89;71.67;99857.25;1478687;88;22285;-79
2023/01/09 03:26:55;;;;;;;9.03;5.30;;;;;;;7.91;71.10;99863.19;1544128;84;22232;-80
2023/01/09 03:29:21;;;;;;;7.00;4.90;;;;;;;7.93;71.08;99852.03;1517635;84;21426;-80
2023/01/09 03:31:48;;;;;;;9.20;5.10;;;;;;;7.98;70.97;99871.37;1534038;84;21486;-80
2023/01/09 03:34:14;;;;;;;6.90;4.70;;;;;;;8.01;71.24;99868.44;1545487;84;21417;-80
2023/01/09 03:36:40;;;;;;;8.47;5.00;;;;;;;8.04;71.00;99874.25;1543503;84;21551;-80
2023/01/09 03:39:06;;;;;;;8.33;5.10;;;;;;;8.04;71.09;99862.88;1477782;88;22351;-81
2023/01/09 03:41:32;;;;;;;8.77;5.13;;;;;;;8.01;70.17;99860.05;1536602;84;21358;-78
2023/01/09 03:43:59;;;;;;;7.47;5.37;;;;;;;8.00;70.59;99858.39;1477481;88;21338;-79
2023/01/09 03:46:25;;;;;;;9.33;5.23;;;;;;;8.00;71.10;99864.13;1540137;84;21334;-81
2023/01/09 03:48:51;;;;;;;11.87;5.77;;;;;;;7.96;71.62;99857.00;1513599;84;22232;-81
2023/01/09 03:51:18;;;;;;;9.37;6.17;;;;;;;7.99;71.36;99863.30;1542688;84;21426;-81
2023/01/09 03:53:44;;;;;;;5.50;4.20;;;;;;;7.99;70.97;99863.30;1550147;84;21492;-80
2023/01/09 03:56:10;;;;;;;6.63;5.27;;;;;;;8.00;70.69;99861.03;1472940;88;22776;-80
2023/01/09 03:58:36;;;;;;;7.50;5.50;;;;;;;8.02;71.02;99858.23;1547400;84;21321;-80
2023/01/09 04:01:08;;;;;;;8.60;6.00;;;;;;;7.99;70.53;99859.84;1538298;84;21292;-80
2023/01/09 04:03:33;;;;;;;7.90;4.95;;;;;;;7.98;70.73;99859.02;1532974;84;23170;-79
2023/01/09 04:06:00;;;;;;;10.00;5.27;;;;;;;7.96;71.08;99855.69;1478922;87;21406;-80
2023/01/09 04:08:26;;;;;;;8.77;5.33;;;;;;;7.95;71.02;99856.67;1546541;84;22246;-80
2023/01/09 04:10:52;;;;;;;10.17;5.73;;;;;;;7.97;71.34;99858.69;1472849;88;22336;-80
2023/01/09 04:13:19;;;;;;;8.53;5.77;;;;;;;7.98;71.11;99859.02;1535438;84;21323;-81
2023/01/09 04:15:46;;;;;;;9.17;4.83;;;;;;;7.98;70.25;99845.02;1537743;84;21359;-81
2023/01/09 04:18:12;;;;;;;8.03;5.60;;;;;;;8.00;70.10;99845.68;1538803;84;21381;-80
2023/01/09 04:20:39;;;;;;;9.17;5.43;;;;;;;8.01;70.50;99850.82;1477533;88;22336;-80
2023/01/09 04:23:06;;;;;;;9.77;5.43;;;;;;;8.02;70.30;99843.73;1545470;84;21366;-79
2023/01/09 04:25:33;;;;;;;9.13;5.40;;;;;;;8.03;69.53;99846.24;1549513;84;21432;-80
2023/01/09 04:27:59;;;;;;;7.40;5.37;;;;;;;8.00;69.29;99846.54;1540729;84;21352;-80
2023/01/09 04:30:26;;;;;;;8.27;5.30;;;;;;;8.01;70.03;99844.72;1519065;84;21410;-80
2023/01/09 04:32:52;;;;;;;10.23;5.57;;;;;;;8.01;70.14;99855.27;1546123;84;21395;-81
2023/01/09 04:35:19;;;;;;;7.97;5.50;;;;;;;8.00;69.73;99857.08;1545948;84;22181;-81
2023/01/09 04:37:45;;;;;;;12.70;4.40;;;;;;;8.03;69.78;99856.78;1543293;84;21492;-80
2023/01/09 04:40:13;;;;;;;8.10;5.47;;;;;;;8.04;69.07;99863.70;1478984;88;21352;-80
2023/01/09 04:42:40;;;;;;;7.03;5.27;;;;;;;8.09;68.88;99871.19;1538676;84;21351;-82
2023/01/09 04:45:10;;;;;;;9.50;6.27;;;;;;;8.10;68.69;99860.98;1541747;84;21491;-80
2023/01/09 04:47:37;;;;;;;10.53;5.43;;;;;;;8.11;69.43;99856.89;1538609;84;21456;-81
2023/01/09 04:50:04;;;;;;;8.43;6.03;;;;;;;8.09;69.14;99861.47;1535966;84;21418;-81
2023/01/09 04:52:30;;;;;;;8.20;5.37;;;;;;;8.07;69.28;99859.95;1481543;88;22336;-81
2023/01/09 04:54:56;;;;;;;8.93;5.20;;;;;;;8.07;70.18;99850.23;1541894;84;21315;-80
2023/01/09 04:57:23;;;;;;;9.90;6.23;;;;;;;8.02;70.37;99844.56;1481305;88;21575;-80
2023/01/09 04:59:49;;;;;;;8.87;5.73;;;;;;;7.98;70.35;99851.11;1535559;84;21514;-80
2023/01/09 05:02:15;;;;;;;10.17;4.77;;;;;;;7.96;70.90;99854.86;1552504;84;22446;-79
2023/01/09 05:04:42;;;;;;;11.03;6.23;;;;;;;7.93;70.71;99853.34;1541495;84;21433;-78
2023/01/09 05:07:08;;;;;;;9.07;5.30;;;;;;;7.93;71.41;99855.98;1524378;84;21485;-80
2023/01/09 05:09:35;;;;;;;7.97;4.43;;;;;;;7.92;71.81;99851.70;1470472;87;21405;-80
2023/01/09 05:12:01;;;;;;;8.87;4.90;;;;;;;7.91;72.10;99851.33;1540542;84;22460;-81
2023/01/09 05:14:28;;;;;;;10.00;5.87;;;;;;;7.87;72.31;99844.70;1476481;88;21346;-81
2023/01/09 05:16:54;;;;;;;9.37;5.07;;;;;;;7.82;72.14;99831.95;1535710;84;21437;-81
2023/01/09 05:19:20;;;;;;;10.53;6.03;;;;;;;7.78;71.56;99837.67;1541315;84;22129;-82
2023/01/09 05:21:46;;;;;;;6.27;4.63;;;;;;;7.78;71.84;99827.95;1470893;88;21397;-81
2023/01/09 05:24:13;;;;;;;8.33;4.87;;;;;;;7.79;71.81;99835.37;1543888;84;21518;-80
2023/01/09 05:26:39;;;;;;;11.50;6.10;;;;;;;7.80;71.17;99831.78;1545221;84;21337;-81
2023/01/09 05:29:05;;;;;;;8.47;5.67;;;;;;;7.82;71.94;99829.81;1536248;84;21403;-82
2023/01/09 05:31:31;;;;;;;10.80;6.67;;;;;;;7.83;71.47;99823.09;1473889;87;21397;-81
2023/01/09 05:33:59;;;;;;;12.00;8.00;;;;;;;7.85;71.14;99828.20;1544421;84;21366;-81
2023/01/09 05:36:25;;;;;;;9.43;6.37;;;;;;;7.84;71.25;99823.92;1483159;88;21368;-83
2023/01/09 05:38:51;;;;;;;8.40;5.77;;;;;;;7.84;71.41;99827.87;1538489;84;22349;-82
2023/01/09 05:41:18;;;;;;;8.93;6.03;;;;;;;7.83;70.56;99832.80;1482454;88;21433;-83
2023/01/09 05:43:44;;;;;;;8.63;5.83;;;;;;;7.82;71.02;99816.14;1534950;84;21440;-82
2023/01/09 05:46:10;;;;;;;11.57;5.57;;;;;;;7.82;71.28;99819.27;1468330;88;22492;-83
2023/01/09 05:48:36;;;;;;;6.77;4.93;;;;;;;7.82;71.08;99819.27;1539936;84;21323;-82
2023/01/09 05:51:03;;;;;;;9.87;6.60;;;;;;;7.84;71.55;99813.38;1475143;88;22278;-83
2023/01/09 05:53:29;;;;;;;11.70;5.80;;;;;;;7.86;71.27;99810.13;1541281;84;22395;-82
2023/01/09 05:55:55;;;;;;;10.50;5.70;;;;;;;7.86;71.18;99803.05;1538478;84;21336;-79
2023/01/09 05:58:21;;;;;;;9.20;5.93;;;;;;;7.87;71.52;99801.23;1538007;84;21315;-80
2023/01/09 06:00:48;;;;;;;10.93;6.60;;;;;;;7.87;71.85;99801.23;1539576;84;21307;-79
2023/01/09 06:03:14;;;;;;;10.03;5.87;;;;;;;7.84;71.76;99804.98;1539601;84;21307;-80
2023/01/09 06:05:40;;;;;;;9.97;5.97;;;;;;;7.83;72.05;99804.65;1467415;88;22402;-80
2023/01/09 06:08:06;;;;;;;9.43;5.80;;;;;;;7.81;71.96;99800.50;1542509;84;21337;-79
2023/01/09 06:10:32;;;;;;;16.23;7.10;;;;;;;7.79;72.13;99802.44;1541116;84;21550;-80
2023/01/09 06:12:58;;;;;;;9.67;6.00;;;;;;;7.75;72.22;99806.35;1531863;84;22232;-81
2023/01/09 06:15:24;;;;;;;8.53;4.90;;;;;;;7.73;72.56;99802.53;1543869;84;21351;-80
2023/01/09 06:17:51;;;;;;;10.23;6.10;;;;;;;7.75;72.87;99802.40;1537392;84;22356;-82
2023/01/09 06:20:18;;;;;;;12.13;6.70;;;;;;;7.75;71.96;99805.86;1535752;84;21344;-81
2023/01/09 06:22:44;;;;;;;15.03;8.43;;;;;;;7.78;71.96;99794.20;1542607;84;21483;-80
2023/01/09 06:25:12;;;;;;;16.27;8.37;;;;;;;7.81;72.02;99799.19;1538671;84;21294;-82
2023/01/09 06:27:38;;;;;;;16.97;8.77;;;;;;;7.81;71.58;99796.55;1542612;84;21462;-86
2023/01/09 06:30:07;;;;;;;19.63;10.23;;;;;;;7.80;71.22;99792.27;1538535;84;21292;-79
2023/01/09 06:32:33;;;;;;;19.17;9.20;;;;;;;7.81;71.86;99790.78;1475297;88;21404;-79
2023/01/09 06:34:59;;;;;;;19.10;9.03;;;;;;;7.81;71.67;99788.64;1542354;84;21395;-80
2023/01/09 06:37:26;;;;;;;14.40;6.90;;;;;;;7.78;71.41;99792.89;1533657;84;21411;-79
2023/01/09 06:39:53;;;;;;;9.67;5.27;;;;;;;7.79;71.33;99791.91;1534815;84;21495;-80
2023/01/09 06:42:20;;;;;;;8.60;5.57;;;;;;;7.79;71.62;99798.48;1547030;84;22422;-79
2023/01/09 06:44:47;;;;;;;11.40;5.63;;;;;;;7.77;71.92;99789.89;1476057;87;21375;-91
2023/01/09 06:47:13;;;;;;;13.70;6.50;;;;;;;7.76;72.14;99789.06;1533233;84;21366;-90
2023/01/09 06:49:39;;;;;;;16.50;6.77;;;;;;;7.78;72.40;99789.77;1547274;84;21285;-91
2023/01/09 06:52:06;;;;;;;16.40;9.20;;;;;;;7.79;71.98;99795.36;1542174;84;21491;-91
2023/01/09 06:54:33;;;;;;;15.57;7.97;;;;;;;7.84;72.33;99788.35;1540236;84;21337;-89
2023/01/09 06:57:00;;;;;;;15.07;7.43;;;;;;;7.86;71.88;99792.50;1540397;84;22312;-88
2023/01/09 06:59:26;;;;;;;9.97;5.70;;;;;;;7.89;72.11;99787.44;1535720;84;21299;-91
2023/01/09 07:02:05;;;;;;;9.27;6.37;;;;;;;7.89;72.12;99783.48;1535685;84;22232;-90
2023/01/09 07:04:31;;;;;;;12.40;7.13;;;;;;;7.90;71.66;99785.13;1541780;84;21323;-92
2023/01/09 07:06:57;;;;;;;14.73;7.63;;;;;;;7.89;71.52;99780.84;1540047;84;21329;-91
2023/01/09 07:09:23;;;;;;;10.23;6.57;;;;;;;7.90;71.67;99785.13;1538879;84;21432;-91
2023/01/09 07:11:49;;;;;;;14.20;7.77;;;;;;;7.88;71.69;99781.80;1536242;84;22395;-91
2023/01/09 07:14:15;;;;;;;12.23;8.03;;;;;;;7.89;71.56;99780.84;1477819;87;21360;-90
2023/01/09 07:16:41;;;;;;;16.70;10.80;;;;;;;7.87;71.65;99782.30;1537317;84;21380;-91
2023/01/09 07:19:12;;;;;;;19.60;12.00;;;;;;;7.87;71.47;99782.78;1529114;84;22328;-89
2023/01/09 07:21:38;;;;;;;21.20;13.00;;;;;;;7.89;71.75;99787.44;1546769;84;21323;-90
2023/01/09 07:24:05;;;;;;;18.63;12.33;;;;;;;7.91;72.16;99785.46;1542457;84;22579;-87
2023/01/09 07:26:31;;;;;;;19.60;12.97;;;;;;;7.96;72.37;99792.94;1526776;84;22923;-91
2023/01/09 07:28:57;;;;;;;25.93;14.67;;;;;;;7.99;72.10;99794.78;1542463;84;21500;-90
2023/01/09 07:31:23;;;;;;;14.50;8.67;;;;;;;8.02;71.86;99797.63;1541944;84;21329;-90
2023/01/09 07:33:49;;;;;;;12.53;6.93;;;;;;;8.05;71.89;99799.47;1536113;84;21525;-91
2023/01/09 07:36:16;;;;;;;13.73;7.63;;;;;;;8.05;71.58;99799.47;1535504;84;21263;-91
2023/01/09 07:38:42;;;;;;;10.80;6.70;;;;;;;8.06;71.54;99795.87;1543989;84;21337;-90
2023/01/09 07:41:16;;;;;;;15.73;7.40;;;;;;;8.06;71.53;99791.92;1479547;88;22382;-91
2023/01/09 07:43:42;;;;;;;11.40;7.33;;;;;;;8.06;71.61;99790.61;1518561;84;22335;-89
2023/01/09 07:46:08;;;;;;;11.47;6.80;;;;;;;8.06;71.73;99787.14;1542188;84;21330;-88
2023/01/09 07:48:34;;;;;;;13.67;7.17;;;;;;;8.04;71.76;99788.59;1542790;84;22144;-91
2023/01/09 07:51:00;;;;;;;16.43;8.50;;;;;;;8.01;71.90;99784.11;1535284;84;21447;-90
2023/01/09 07:53:27;;;;;;;13.47;7.60;;;;;;;7.98;71.93;99783.91;1537930;84;21485;-91
2023/01/09 07:55:53;;;;;;;22.17;12.07;;;;;;;7.96;71.98;99785.03;1516970;84;21409;-88
2023/01/09 07:58:19;;;;;;;30.47;17.63;;;;;;;7.94;72.00;99783.88;1542047;84;21351;-91
2023/01/09 08:00:45;;;;;;;47.77;25.07;;;;;;;7.92;72.11;99780.55;1538815;84;21343;-90
2023/01/09 08:03:12;;;;;;;43.53;22.47;;;;;;;7.92;72.46;99783.19;1513828;84;21388;-92
2023/01/09 08:05:38;;;;;;;37.33;20.57;;;;;;;7.95;72.85;99780.26;1479362;88;21404;-91
2023/01/09 08:08:05;;;;;;;32.13;17.30;;;;;;;8.00;73.13;99770.12;1544649;84;21345;-90
2023/01/09 08:10:34;;;;;;;30.93;16.53;;;;;;;8.03;73.08;99774.27;1535403;84;21476;-88
2023/01/09 08:13:00;;;;;;;19.57;12.23;;;;;;;8.06;73.10;99773.97;1546545;84;21448;-91
2023/01/09 08:15:26;;;;;;;23.30;11.63;;;;;;;8.04;73.58;99770.15;1539217;84;22342;-91
2023/01/09 08:17:52;;;;;;;27.30;11.77;;;;;;;8.01;73.90;99773.08;1540601;84;21292;-94
2023/01/09 08:20:19;;;;;;;15.13;9.63;;;;;;;7.97;74.15;99770.41;1536481;84;21329;-88
2023/01/09 08:22:49;;;;;;;16.80;11.03;;;;;;;7.90;74.83;99777.22;1540124;84;21493;-90
2023/01/09 08:25:17;;;;;;;22.35;13.20;;;;;;;7.82;75.36;99770.04;1481953;88;21389;-86
2023/01/09 08:27:43;;;;;;;19.97;12.20;;;;;;;7.80;75.74;99759.34;1543369;84;21458;-89
2023/01/09 08:30:11;;;;;;;17.53;10.57;;;;;;;7.80;76.30;99764.11;1544199;84;21403;-87
2023/01/09 08:32:37;;;;;;;16.47;10.47;;;;;;;7.78;76.80;99770.50;1540904;84;21315;-88
2023/01/09 08:35:05;;;;;;;15.27;10.40;;;;;;;7.76;77.74;99769.31;1476593;88;22328;-88
2023/01/09 08:37:31;;;;;;;15.93;10.53;;;;;;;7.78;77.48;99770.50;1516906;84;21425;-86
2023/01/09 08:39:57;;;;;;;16.80;11.47;;;;;;;7.78;77.59;99773.95;1545714;84;21293;-81
2023/01/09 08:47:57;;;;;;;19.77;12.30;;;;;;;7.75;78.14;99763.71;1536703;84;21271;-81
2023/01/09 08:50:23;;;;;;;20.67;13.87;;;;;;;7.73;78.41;99768.28;1537430;84;21463;-87
2023/01/09 08:52:49;;;;;;;34.07;18.87;;;;;;;7.68;79.26;99758.67;1477137;88;21434;-85
2023/01/09 08:55:15;;;;;;;27.23;16.60;;;;;;;7.65;79.25;99757.18;1511344;84;21425;-86
2023/01/09 08:57:53;;;;;;;17.93;12.07;;;;;;;7.65;79.63;99758.50;1479009;88;21382;-87
2023/01/09 09:00:25;;;;;;;29.33;13.77;;;;;;;7.66;79.42;99761.95;1477487;88;21500;-86
2023/01/09 09:06:52;;;;;;;26.53;12.93;;;;;;;7.76;79.27;99744.28;1469910;88;21515;-86
2023/01/09 09:09:18;;;;;;;25.20;14.37;;;;;;;7.81;79.25;99744.69;1539530;84;21323;-87
2023/01/09 09:11:44;;;;;;;21.20;13.67;;;;;;;7.84;79.55;99743.56;1544217;84;21395;-84
2023/01/09 09:16:55;;;;;;;19.33;13.30;;;;;;;7.85;79.29;99747.84;1474061;88;21338;-87
2023/01/09 09:19:21;;;;;;;21.73;12.53;;;;;;;7.86;79.16;99746.89;1546279;84;21366;-86
2023/01/09 09:21:48;;;;;;;17.47;12.43;;;;;;;7.86;79.32;99745.57;1535668;84;21515;-85
2023/01/09 09:24:14;;;;;;;21.10;12.07;;;;;;;7.87;79.69;99741.95;1465748;88;21390;-86
2023/01/09 09:26:40;;;;;;;20.17;12.50;;;;;;;7.90;79.88;99739.02;1544677;84;21300;-83
2023/01/09 09:29:06;;;;;;;20.03;11.77;;;;;;;7.93;80.02;99730.00;1536418;84;22807;-91
2023/01/09 09:31:32;;;;;;;21.90;13.07;;;;;;;7.98;80.04;99726.44;1540832;84;21410;-92
2023/01/09 09:33:58;;;;;;;20.27;12.53;;;;;;;8.00;80.38;99718.73;1542940;84;21337;-92
2023/01/09 09:36:25;;;;;;;18.40;12.13;;;;;;;8.05;80.24;99708.55;1538730;84;22262;-89
2023/01/09 09:38:51;;;;;;;21.93;13.27;;;;;;;8.08;80.36;99706.11;1547863;84;21352;-90
2023/01/09 09:44:42;;;;;;;20.62;13.00;;;;;;;8.11;80.04;99703.17;1534282;84;21469;-78
2023/01/09 09:47:39;;;;;;;20.15;12.82;;;;;;;8.13;80.23;99709.95;1421082;91;21479;-80
2023/01/09 09:50:30;;;;;;;22.17;13.27;;;;;;;8.13;82.51;99699.41;1481277;87;21405;-80
2023/01/09 09:53:04;;;;;;;18.43;12.40;;;;;;;8.16;81.02;99693.02;1481232;88;21442;-80
2023/01/09 09:55:35;;;;;;;17.37;12.13;;;;;;;8.20;80.69;99696.17;1475374;88;21331;-80
2023/01/09 09:58:26;;;;;;;18.05;10.48;;;;;;;8.24;80.67;99693.59;1483989;87;21500;-79
2023/01/09 10:00:54;;;;;;;17.80;11.43;;;;;;;8.28;80.09;99693.62;1486268;87;21375;-79
2023/01/09 10:03:44;;;;;;;17.30;10.90;;;;;;;8.29;79.82;99685.57;1476430;88;22269;-80
2023/01/09 10:06:35;;;;;;;15.63;10.50;;;;;;;8.32;79.67;99685.77;1541154;84;21499;-80
2023/01/09 10:09:47;;;;;;;13.33;10.23;;;;;;;8.33;79.61;99686.91;1540957;84;21499;-91
2023/01/09 10:12:33;;;;;;;14.60;10.10;;;;;;;8.33;79.37;99680.81;1545541;84;21507;-89
2023/01/09 10:15:19;;;;;;;20.23;12.77;;;;;;;8.33;79.12;99680.81;1544322;84;21417;-93
2023/01/09 10:18:06;;;;;;;24.50;14.67;;;;;;;8.33;79.29;99678.18;1477470;88;21346;-91
2023/01/09 10:20:53;;;;;;;24.53;15.80;;;;;;;8.33;79.36;99665.00;1540551;84;21344;-95
2023/01/09 10:23:49;;;;;;;33.77;18.67;;;;;;;8.36;79.69;99660.73;1473474;88;21485;-95
2023/01/09 10:26:40;;;;;;;33.73;19.20;;;;;;;8.39;79.53;99656.51;1537770;84;21544;-93
2023/01/09 10:29:34;;;;;;;;;;;;;;;8.50;79.54;99651.00;1476655;87;21581;-93
2023/01/09 10:32:23;;;;;;;18.20;10.10;;;;;;;8.58;78.91;99648.42;1501370;87;20295;-92
2023/01/09 10:35:16;;;;;;;15.63;9.60;;;;;;;8.68;78.89;99652.77;1476219;87;22225;-93
2023/01/09 10:37:45;;;;;;;13.03;9.53;;;;;;;8.75;78.52;99645.91;1542246;84;22239;-95
2023/01/09 10:40:26;;;;;;;12.13;8.83;;;;;;;8.74;77.80;99638.95;1470675;88;21331;-91
2023/01/09 10:43:33;;;;;;;19.95;12.03;;;;;;;8.74;77.24;99631.05;1546090;84;21383;-93
2023/01/09 10:46:04;;;;;;;20.80;11.50;;;;;;;8.73;77.08;99624.12;1473102;88;21339;-92
2023/01/09 10:48:38;;;;;;;33.58;16.17;;;;;;;8.79;77.59;99621.69;1542599;84;23018;-93
2023/01/09 10:51:13;;;;;;;17.77;10.70;;;;;;;8.81;77.29;99610.98;1539332;84;22542;-94
2023/01/09 10:53:43;;;;;;;36.53;18.47;;;;;;;8.85;77.42;99609.67;1540039;84;22126;-93
2023/01/09 10:56:23;;;;;;;24.80;14.30;;;;;;;8.86;77.48;99612.67;1471147;88;22204;-95
2023/01/09 10:58:52;;;;;;;18.77;13.03;;;;;;;8.87;77.35;99613.00;1524207;84;21359;-94
2023/01/09 11:01:32;;;;;;;25.97;16.67;;;;;;;8.92;77.30;99608.08;1472010;88;21552;-94
2023/01/09 11:04:00;;;;;;;17.13;12.97;;;;;;;8.94;77.07;99599.50;1540671;84;22181;-94
2023/01/09 11:06:41;;;;;;;15.57;10.70;;;;;;;8.93;76.51;99598.35;1479931;88;21373;-90
2023/01/09 11:09:07;;;;;;;;;;;;;;;8.95;76.92;99592.43;1544226;84;21558;-94
2023/01/09 11:11:42;;;;;;;15.77;10.13;;;;;;;8.91;76.27;99585.30;1539453;84;20334;-94
2023/01/09 11:14:30;;;;;;;18.40;10.50;;;;;;;8.89;76.64;99584.65;1532743;84;21500;-94
2023/01/09 11:17:02;;;;;;;21.13;10.70;;;;;;;8.87;76.51;99580.52;1476719;87;22307;-94
2023/01/09 11:19:32;;;;;;;18.17;12.37;;;;;;;8.88;76.69;99577.70;1550921;84;21532;-93
2023/01/09 11:22:08;;;;;;;18.30;10.17;;;;;;;8.88;76.81;99574.23;1478353;88;21309;-91
2023/01/09 11:24:34;;;;;;;17.90;10.33;;;;;;;8.92;77.03;99571.14;1540384;84;21301;-92
2023/01/09 11:27:25;;;;;;;19.43;10.50;;;;;;;8.98;77.16;99573.14;1535272;84;21322;-94
2023/01/09 11:30:19;;;;;;;19.70;10.73;;;;;;;9.08;76.91;99572.19;1475721;88;21470;-91
2023/01/09 11:32:47;;;;;;;14.40;9.70;;;;;;;9.20;76.69;99574.37;1533676;84;21433;-94
2023/01/09 11:35:34;;;;;;;14.10;10.00;;;;;;;9.30;76.37;99561.05;1552150;84;21485;-94
2023/01/09 11:38:17;;;;;;;22.10;14.43;;;;;;;9.39;76.27;99565.36;1533064;84;22129;-95
2023/01/09 11:40:58;;;;;;;25.40;15.23;;;;;;;9.52;76.21;99554.32;1477492;88;21501;-94
2023/01/09 11:43:39;;;;;;;;;;;;;;;9.63;75.91;99547.41;1531838;84;21433;-90
2023/01/09 11:46:10;;;;;;;21.77;12.57;;;;;;;9.76;75.46;99550.91;1520202;84;20818;-95
2023/01/09 11:48:58;;;;;;;14.13;8.98;;;;;;;9.82;75.21;99543.64;1538085;84;21388;-92
2023/01/09 11:51:32;;;;;;;14.13;9.10;;;;;;;9.86;74.27;99540.98;1537069;84;21529;-93
2023/01/09 11:54:27;;;;;;;15.17;10.03;;;;;;;9.90;74.21;99549.44;1541006;84;21322;-96
2023/01/09 11:56:54;;;;;;;11.90;8.57;;;;;;;9.88;73.65;99541.66;1473479;88;21324;-94
2023/01/09 11:59:29;;;;;;;26.47;13.57;;;;;;;9.87;73.93;99542.66;1539244;84;21396;-91
2023/01/09 12:02:27;;;;;;;22.67;14.03;;;;;;;9.88;74.06;99545.63;1539770;84;21277;-92
2023/01/09 12:05:02;;;;;;;19.80;13.10;;;;;;;9.80;73.68;99546.94;1470354;88;22727;-95
2023/01/09 12:08:20;;;;;;;23.63;11.90;;;;;;;9.82;73.95;99546.29;1539347;84;21466;-95
2023/01/09 12:10:55;;;;;;;18.90;11.30;;;;;;;9.84;74.22;99546.11;1459885;88;21330;-93
2023/01/09 12:13:54;;;;;;;15.07;10.43;;;;;;;9.91;73.81;99551.91;1542108;84;22283;-94